Time;durP1;ratioP1;P1;durP2;ratioP2;P2;SDS_P1;SDS_P2;PMS_P1;PMS_P2;Temp;Humidity;BMP_temperature;BMP_pressure;BME280_temperature;BME280_humidity;BME280_pressure;Samples;Min_cycle;Max_cycle;Signal;HPM_P1;HPM_P2
2022/05/13 00:01:45;;;;;;;3.95;2.53;;;19.50;99.90;;;;;;5095870;28;20024;-94
2022/05/13 00:04:11;;;;;;;6.55;2.33;;;19.60;99.90;;;;;;5094736;28;20088;-94
2022/05/13 00:06:37;;;;;;;7.10;2.78;;;19.80;99.90;;;;;;5096122;28;20032;-94
2022/05/13 00:09:03;;;;;;;9.50;2.30;;;20.00;99.90;;;;;;5083787;28;20024;-93
2022/05/13 00:11:29;;;;;;;5.63;2.40;;;20.30;98.70;;;;;;5094360;28;20028;-95
2022/05/13 00:13:55;;;;;;;8.23;2.30;;;20.50;97.80;;;;;;5094515;28;20039;-93
2022/05/13 00:16:21;;;;;;;3.95;2.55;;;20.70;96.80;;;;;;5097758;28;20028;-96
2022/05/13 00:18:47;;;;;;;6.32;2.75;;;20.80;96.30;;;;;;5096022;28;20077;-94
2022/05/13 00:21:13;;;;;;;3.83;2.00;;;20.90;95.60;;;;;;5094935;28;20127;-95
2022/05/13 00:23:39;;;;;;;5.63;2.05;;;20.90;95.10;;;;;;5097827;28;20025;-95
2022/05/13 00:26:04;;;;;;;5.20;2.13;;;20.90;95.00;;;;;;5094932;28;20028;-95
2022/05/13 00:28:30;;;;;;;7.05;2.35;;;21.00;94.80;;;;;;5092197;28;20032;-94
2022/05/13 00:30:59;;;;;;;5.03;1.88;;;20.90;95.20;;;;;;5092593;28;20078;-94
2022/05/13 00:33:25;;;;;;;3.35;1.80;;;20.80;95.60;;;;;;5098379;28;20039;-95
2022/05/13 00:35:50;;;;;;;6.75;2.30;;;20.80;95.80;;;;;;5094433;28;20021;-94
2022/05/13 00:38:17;;;;;;;3.33;2.05;;;20.70;95.70;;;;;;5096685;28;20473;-95
2022/05/13 00:40:44;;;;;;;5.47;1.85;;;20.70;95.70;;;;;;5092849;28;20100;-95
2022/05/13 00:43:11;;;;;;;2.92;2.08;;;20.60;95.60;;;;;;5093037;28;20025;-94
2022/05/13 00:45:38;;;;;;;3.45;2.13;;;20.60;95.60;;;;;;5090658;28;20032;-95
2022/05/13 00:48:04;;;;;;;5.80;1.83;;;20.60;95.90;;;;;;5091962;28;20038;-93
2022/05/13 00:50:32;;;;;;;5.45;2.17;;;20.60;96.10;;;;;;5090652;28;20028;-95
2022/05/13 00:52:58;;;;;;;9.13;2.40;;;20.50;96.20;;;;;;5089730;28;20520;-94
2022/05/13 00:55:37;;;;;;;9.38;2.15;;;20.50;96.80;;;;;;5073811;28;20024;-94
2022/05/13 00:58:06;;;;;;;5.90;1.95;;;20.50;97.70;;;;;;5073291;28;20035;-94
2022/05/13 01:00:32;;;;;;;3.35;1.90;;;20.40;98.10;;;;;;5090569;28;20016;-95
2022/05/13 01:02:58;;;;;;;3.50;2.15;;;20.30;98.30;;;;;;5089953;28;20029;-95
2022/05/13 01:05:28;;;;;;;4.57;2.25;;;20.30;98.30;;;;;;5095320;28;20052;-94
2022/05/13 01:07:54;;;;;;;4.80;2.13;;;20.20;98.50;;;;;;5098228;28;20032;-94
2022/05/13 01:10:25;;;;;;;3.20;2.40;;;20.20;98.90;;;;;;5097171;28;20028;-94
2022/05/13 01:12:57;;;;;;;3.92;1.48;;;20.20;98.20;;;;;;5101128;28;20028;-94
2022/05/13 01:15:27;;;;;;;4.35;1.40;;;20.20;97.30;;;;;;5079441;28;20025;-93
2022/05/13 01:18:09;;;;;;;5.93;1.70;;;20.20;96.60;;;;;;5087343;28;20036;-94
2022/05/13 01:20:46;;;;;;;14.80;2.83;;;20.30;95.90;;;;;;5097960;28;20013;-96
2022/05/13 01:23:21;;;;;;;3.65;1.60;;;20.30;95.20;;;;;;5087673;28;20115;-95
2022/05/13 01:25:51;;;;;;;5.93;1.50;;;20.40;94.20;;;;;;5098383;28;20035;-94
2022/05/13 01:28:23;;;;;;;5.50;1.90;;;20.50;93.90;;;;;;5094508;28;20025;-94
2022/05/13 01:30:52;;;;;;;6.00;1.70;;;20.50;93.60;;;;;;5093567;28;20028;-95
2022/05/13 01:33:19;;;;;;;7.63;1.60;;;20.60;93.60;;;;;;5093678;28;20046;-96
2022/05/13 01:35:47;;;;;;;3.78;1.60;;;20.60;92.50;;;;;;5093510;28;20112;-95
2022/05/13 01:38:13;;;;;;;2.08;1.30;;;20.70;91.80;;;;;;5090423;28;20025;-94
2022/05/13 01:40:39;;;;;;;3.78;1.80;;;20.70;91.10;;;;;;5091011;28;20020;-95
2022/05/13 01:43:06;;;;;;;3.95;1.33;;;20.70;91.10;;;;;;5092725;28;20024;-94
2022/05/13 01:45:32;;;;;;;4.30;1.90;;;20.70;91.40;;;;;;5093609;28;20059;-94
2022/05/13 01:47:57;;;;;;;2.80;1.70;;;20.70;91.70;;;;;;5092765;28;20028;-94
2022/05/13 01:50:24;;;;;;;2.75;1.40;;;20.70;91.90;;;;;;5090324;28;20032;-93
2022/05/13 01:52:50;;;;;;;2.55;1.30;;;20.60;92.50;;;;;;5091030;28;20501;-95
2022/05/13 01:55:16;;;;;;;4.15;1.50;;;20.60;92.80;;;;;;5096995;28;20036;-94
2022/05/13 01:57:42;;;;;;;2.95;1.27;;;20.50;92.30;;;;;;5080076;28;20035;-93
2022/05/13 02:00:08;;;;;;;6.72;1.17;;;20.60;90.50;;;;;;5097058;28;20025;-94
2022/05/13 02:03:44;;;;;;;3.05;0.90;;;20.60;89.70;;;;;;5099510;28;20024;-92
2022/05/13 02:05:20;;;;;;;3.20;0.90;;;20.70;88.40;;;;;;5122124;28;20069;-94
2022/05/13 02:07:47;;;;;;;6.95;1.10;;;20.80;86.50;;;;;;5107598;28;20055;-94
2022/05/13 02:10:13;;;;;;;2.67;0.88;;;20.90;85.00;;;;;;5106096;28;20014;-94
2022/05/13 02:12:38;;;;;;;4.03;0.73;;;21.00;83.60;;;;;;5123001;28;20035;-95
2022/05/13 02:15:05;;;;;;;5.05;1.25;;;21.10;82.80;;;;;;5108276;28;20042;-96
2022/05/13 02:17:31;;;;;;;2.33;0.90;;;21.20;81.80;;;;;;5101907;28;20422;-93
2022/05/13 02:20:00;;;;;;;4.03;0.98;;;21.20;81.10;;;;;;5102623;28;20019;-94
2022/05/13 02:22:26;;;;;;;2.17;0.82;;;21.30;80.10;;;;;;5103678;28;20028;-95
2022/05/13 02:24:53;;;;;;;2.13;0.82;;;21.40;79.10;;;;;;5102838;28;20034;-93
2022/05/13 02:27:19;;;;;;;1.95;0.88;;;21.50;78.00;;;;;;5103779;28;20019;-94
2022/05/13 02:29:44;;;;;;;1.65;0.73;;;21.50;76.70;;;;;;5102219;28;20396;-94
2022/05/13 02:32:10;;;;;;;1.50;0.75;;;21.60;76.30;;;;;;5103792;28;20122;-94
2022/05/13 02:34:36;;;;;;;5.07;1.05;;;21.60;74.80;;;;;;5103190;28;20122;-93
2022/05/13 02:37:03;;;;;;;4.63;0.98;;;21.60;74.70;;;;;;5099524;28;20433;-94
2022/05/13 02:39:29;;;;;;;2.92;0.80;;;21.70;74.20;;;;;;5100357;28;20031;-95
2022/05/13 02:41:55;;;;;;;1.80;0.82;;;21.70;74.30;;;;;;5104666;28;20028;-94
2022/05/13 02:44:21;;;;;;;1.10;0.60;;;21.70;74.40;;;;;;5104916;28;20031;-95
2022/05/13 02:46:47;;;;;;;3.47;1.02;;;21.70;74.10;;;;;;5118307;28;20024;-93
2022/05/13 02:49:13;;;;;;;1.92;0.90;;;21.70;73.60;;;;;;5104338;28;20016;-95
2022/05/13 02:51:40;;;;;;;4.10;1.00;;;21.80;73.10;;;;;;5099553;28;20480;-95
2022/05/13 02:54:07;;;;;;;7.15;0.93;;;21.80;73.00;;;;;;5116898;28;20019;-94
2022/05/13 02:56:33;;;;;;;4.55;1.10;;;21.80;72.90;;;;;;5097568;28;20023;-94
2022/05/13 02:58:59;;;;;;;8.25;1.15;;;21.90;73.20;;;;;;5101598;28;20069;-94
2022/05/13 03:01:25;;;;;;;2.63;0.93;;;21.80;73.20;;;;;;5099812;28;20024;-96
2022/05/13 03:03:52;;;;;;;2.78;1.17;;;21.90;73.20;;;;;;5099005;28;20058;-95
2022/05/13 03:06:19;;;;;;;2.20;0.85;;;21.90;73.00;;;;;;5099991;28;20024;-95
2022/05/13 03:08:47;;;;;;;3.60;0.90;;;22.00;72.20;;;;;;5099524;28;20028;-93
2022/05/13 03:11:14;;;;;;;6.28;0.80;;;22.00;72.20;;;;;;5096466;28;20028;-96
2022/05/13 03:13:40;;;;;;;3.42;1.20;;;21.90;72.50;;;;;;5093975;28;20043;-95
2022/05/13 03:16:10;;;;;;;3.97;1.02;;;21.90;72.80;;;;;;5097612;28;20091;-94
2022/05/13 03:18:39;;;;;;;5.03;1.17;;;21.80;73.10;;;;;;5102188;28;20040;-94
2022/05/13 03:21:04;;;;;;;3.50;1.27;;;21.80;74.60;;;;;;5100987;28;20027;-96
2022/05/13 03:23:32;;;;;;;3.17;1.25;;;21.80;76.00;;;;;;5102423;28;20430;-92
2022/05/13 03:25:58;;;;;;;1.83;0.90;;;21.60;77.40;;;;;;5107447;28;20491;-94
2022/05/13 03:28:24;;;;;;;3.05;1.05;;;21.60;79.00;;;;;;5122172;28;20073;-94
2022/05/13 03:30:50;;;;;;;1.98;0.90;;;21.50;79.40;;;;;;5122590;28;20004;-93
2022/05/13 03:33:17;;;;;;;2.83;1.00;;;21.40;79.80;;;;;;5100716;28;20024;-93
2022/05/13 03:35:42;;;;;;;1.67;0.73;;;21.40;82.10;;;;;;5098840;28;20063;-96
2022/05/13 03:38:08;;;;;;;3.17;1.00;;;21.40;83.70;;;;;;5093999;28;20057;-95
2022/05/13 03:40:35;;;;;;;4.57;1.05;;;21.30;83.20;;;;;;5095746;28;20024;-94
2022/05/13 03:43:03;;;;;;;2.25;1.10;;;21.30;85.10;;;;;;5096723;28;20031;-96
2022/05/13 03:45:30;;;;;;;4.30;0.95;;;21.30;86.90;;;;;;5101799;28;20031;-95
2022/05/13 03:47:56;;;;;;;6.13;0.95;;;21.20;86.80;;;;;;5094349;28;20023;-94
2022/05/13 03:50:22;;;;;;;3.53;0.80;;;21.10;87.90;;;;;;5098125;28;20023;-92
2022/05/13 03:52:48;;;;;;;3.70;1.00;;;21.10;89.00;;;;;;5125605;28;20020;-93
2022/05/13 03:55:14;;;;;;;2.33;1.38;;;21.10;88.00;;;;;;5104125;28;20369;-93
2022/05/13 03:57:40;;;;;;;5.38;1.38;;;21.20;88.50;;;;;;5068794;28;20172;-94
2022/05/13 04:00:09;;;;;;;5.25;1.55;;;21.20;89.40;;;;;;5120153;28;20028;-94
2022/05/13 04:02:35;;;;;;;6.18;1.48;;;21.30;88.40;;;;;;5103978;28;20028;-93
2022/05/13 04:10:29;;;;;;;4.32;1.85;;;21.40;86.50;;;;;;5122342;28;20059;-94
2022/05/13 04:18:24;;;;;;;5.65;1.20;;;21.40;84.90;;;;;;5122593;28;20030;-94
2022/05/13 04:20:52;;;;;;;2.63;1.50;;;21.30;85.00;;;;;;5124440;28;20797;-94
2022/05/13 04:23:21;;;;;;;3.00;1.02;;;21.30;84.10;;;;;;5107142;28;20024;-93
2022/05/13 04:25:46;;;;;;;4.20;0.93;;;21.30;81.30;;;;;;5104183;28;20075;-93
2022/05/13 04:28:12;;;;;;;3.47;1.13;;;21.40;80.90;;;;;;5120097;28;20110;-94
2022/05/13 04:30:38;;;;;;;3.22;1.33;;;21.30;81.10;;;;;;5110174;28;20136;-91
2022/05/13 04:33:06;;;;;;;3.83;1.25;;;21.40;81.70;;;;;;5118417;28;20043;-93
2022/05/13 04:35:36;;;;;;;5.97;1.08;;;21.50;81.30;;;;;;5132512;28;20024;-91
2022/05/13 04:38:01;;;;;;;1.95;1.10;;;21.50;81.60;;;;;;5111759;28;20032;-94
2022/05/13 04:40:27;;;;;;;5.38;1.55;;;21.60;81.50;;;;;;5108039;28;20040;-94
2022/05/13 04:42:53;;;;;;;2.58;1.15;;;21.60;81.00;;;;;;5106161;28;20031;-91
2022/05/13 04:45:25;;;;;;;5.72;1.23;;;21.60;81.20;;;;;;5116984;27;20121;-91
2022/05/13 04:50:41;;;;;;;6.40;2.03;;;21.60;81.80;;;;;;5151191;27;20038;-93
2022/05/13 04:53:09;;;;;;;2.78;1.50;;;21.50;82.90;;;;;;5108910;28;20032;-94
2022/05/13 04:55:36;;;;;;;4.90;1.10;;;21.40;83.30;;;;;;5089276;28;20035;-92
2022/05/13 04:58:04;;;;;;;2.97;1.33;;;21.30;83.10;;;;;;5111351;28;20061;-92
2022/05/13 05:00:30;;;;;;;3.95;1.30;;;21.30;83.20;;;;;;5130438;27;20058;-94
2022/05/13 05:02:58;;;;;;;3.97;1.55;;;21.30;84.00;;;;;;5129676;27;20050;-93
2022/05/13 05:05:23;;;;;;;6.35;1.83;;;21.30;84.40;;;;;;5129271;27;20047;-92
2022/05/13 05:07:50;;;;;;;7.35;1.52;;;21.30;84.60;;;;;;5114244;28;20051;-93
2022/05/13 05:10:18;;;;;;;2.58;1.55;;;21.30;85.20;;;;;;5111976;28;20476;-92
2022/05/13 05:12:45;;;;;;;2.83;1.40;;;21.30;86.80;;;;;;5114318;28;20330;-92
2022/05/13 05:15:11;;;;;;;2.30;1.13;;;21.20;88.20;;;;;;5126763;28;20032;-92
2022/05/13 05:17:38;;;;;;;4.13;1.58;;;21.20;88.90;;;;;;5108647;28;20119;-93
2022/05/13 05:20:05;;;;;;;2.65;1.60;;;21.20;89.40;;;;;;5110147;28;20087;-94
2022/05/13 05:22:31;;;;;;;3.42;1.00;;;21.20;90.10;;;;;;5107667;28;20049;-92
2022/05/13 05:24:57;;;;;;;2.78;1.50;;;21.20;90.20;;;;;;5105613;28;20049;-94
2022/05/13 05:27:23;;;;;;;2.92;1.08;;;21.20;90.50;;;;;;5099743;28;20023;-93
2022/05/13 05:29:52;;;;;;;6.85;1.25;;;21.30;90.50;;;;;;5105103;28;20020;-93
2022/05/13 05:32:17;;;;;;;7.00;1.13;;;21.40;90.40;;;;;;5101767;28;20015;-92
2022/05/13 05:34:43;;;;;;;4.53;1.77;;;21.40;90.00;;;;;;5108582;28;20035;-93
2022/05/13 05:37:08;;;;;;;2.83;1.52;;;21.40;89.60;;;;;;5102657;28;20122;-93
2022/05/13 05:39:34;;;;;;;9.20;1.17;;;21.40;90.60;;;;;;5106108;28;20024;-93
2022/05/13 05:42:00;;;;;;;5.75;1.75;;;21.40;91.30;;;;;;5117240;27;20018;-94
2022/05/13 05:44:26;;;;;;;10.55;1.23;;;21.30;91.40;;;;;;5117261;27;20027;-94
2022/05/13 05:46:51;;;;;;;5.40;1.30;;;21.30;91.30;;;;;;5121186;27;20371;-92
2022/05/13 05:49:18;;;;;;;6.57;1.30;;;21.30;92.50;;;;;;5105769;28;20026;-93
2022/05/13 05:51:44;;;;;;;13.38;1.88;;;21.30;91.10;;;;;;5113632;27;20113;-96
2022/05/13 05:57:14;;;;;;;3.15;1.23;;;21.20;91.00;;;;;;5138063;27;20080;-94
2022/05/13 05:59:45;;;;;;;2.95;1.30;;;21.20;91.40;;;;;;5125755;27;20020;-92
2022/05/13 06:02:11;;;;;;;4.97;1.33;;;21.20;92.00;;;;;;5123546;27;20087;-92
2022/05/13 06:04:40;;;;;;;3.72;1.38;;;21.10;92.60;;;;;;5124836;27;20046;-93
2022/05/13 06:07:11;;;;;;;3.63;1.00;;;21.10;92.10;;;;;;5124541;27;20027;-94
2022/05/13 06:09:38;;;;;;;3.55;1.40;;;21.20;91.70;;;;;;5123618;27;20042;-92
2022/05/13 06:12:07;;;;;;;6.28;2.40;;;21.20;92.00;;;;;;5124771;27;20031;-94
2022/05/13 06:14:33;;;;;;;3.72;1.30;;;21.30;91.70;;;;;;5120538;27;20062;-93
2022/05/13 06:16:59;;;;;;;3.70;1.35;;;21.30;92.50;;;;;;5122444;27;20027;-94
2022/05/13 06:19:25;;;;;;;1.73;1.00;;;21.30;92.40;;;;;;5122778;27;20019;-94
2022/05/13 06:21:51;;;;;;;4.05;1.45;;;21.50;92.40;;;;;;5121414;27;20467;-95
2022/05/13 06:24:20;;;;;;;1.90;1.17;;;21.50;91.30;;;;;;5123471;27;20091;-93
2022/05/13 06:26:48;;;;;;;2.22;1.33;;;21.40;90.40;;;;;;5121660;27;20034;-95
2022/05/13 06:29:23;;;;;;;2.50;1.50;;;21.60;87.50;;;;;;5124035;27;20076;-93
2022/05/13 06:31:50;;;;;;;3.88;1.15;;;21.60;88.10;;;;;;5122261;27;20531;-91
2022/05/13 06:34:16;;;;;;;2.33;0.88;;;21.80;87.90;;;;;;5125135;27;20039;-94
2022/05/13 06:36:42;;;;;;;7.95;2.00;;;21.90;87.00;;;;;;5121219;27;20034;-92
2022/05/13 06:39:08;;;;;;;3.53;1.05;;;22.00;86.80;;;;;;5121060;27;20027;-94
2022/05/13 06:41:40;;;;;;;2.22;1.05;;;22.30;83.90;;;;;;5121403;27;20024;-94
2022/05/13 06:44:07;;;;;;;1.75;1.17;;;22.30;82.80;;;;;;5128160;27;20086;-93
2022/05/13 06:46:35;;;;;;;3.05;1.30;;;22.50;84.00;;;;;;5121263;27;20086;-95
2022/05/13 06:49:04;;;;;;;5.03;1.15;;;22.70;84.50;;;;;;5120639;27;20022;-92
2022/05/13 06:51:30;;;;;;;2.35;1.50;;;23.00;78.80;;;;;;5136162;27;20400;-93
2022/05/13 06:53:55;;;;;;;5.10;1.35;;;23.30;77.10;;;;;;5120491;27;20035;-93
2022/05/13 06:56:21;;;;;;;2.85;1.60;;;23.70;77.70;;;;;;5118054;27;20027;-94
2022/05/13 06:58:47;;;;;;;3.50;1.83;;;24.00;73.90;;;;;;5112818;27;20027;-90
2022/05/13 07:01:12;;;;;;;2.47;1.25;;;24.20;73.80;;;;;;5106055;28;20023;-88
2022/05/13 07:03:38;;;;;;;2.63;1.27;;;24.30;68.70;;;;;;5099377;27;20321;-87
2022/05/13 07:06:04;;;;;;;3.33;1.25;;;24.20;69.10;;;;;;5094837;28;20092;-94
2022/05/13 07:08:31;;;;;;;3.65;1.70;;;24.40;69.80;;;;;;5094843;28;20048;-92
2022/05/13 07:10:57;;;;;;;5.43;1.35;;;24.60;68.90;;;;;;5111871;28;20043;-95
2022/05/13 07:13:24;;;;;;;2.28;1.33;;;25.00;68.10;;;;;;5093260;28;20074;-93
2022/05/13 07:15:49;;;;;;;2.00;1.20;;;25.60;66.30;;;;;;5094060;28;20019;-92
2022/05/13 07:18:15;;;;;;;4.57;1.20;;;26.00;61.10;;;;;;5093657;28;20028;-92
2022/05/13 07:20:41;;;;;;;7.82;2.33;;;26.20;57.10;;;;;;5112678;28;20034;-92
2022/05/13 07:23:06;;;;;;;17.10;4.32;;;26.00;57.90;;;;;;5114914;27;20044;-90
2022/05/13 07:25:32;;;;;;;44.22;10.73;;;25.50;59.30;;;;;;5113552;27;20228;-88
2022/05/13 07:27:59;;;;;;;2.50;1.40;;;25.00;63.10;;;;;;5114262;27;20019;-87
2022/05/13 07:30:24;;;;;;;1.83;1.00;;;24.70;60.40;;;;;;5132688;27;20023;-88
2022/05/13 07:32:50;;;;;;;12.57;2.00;;;24.40;61.00;;;;;;5113962;28;20084;-90
2022/05/13 07:35:16;;;;;;;7.93;1.98;;;24.30;62.40;;;;;;5114393;28;20520;-93
2022/05/13 07:37:42;;;;;;;19.05;3.95;;;24.10;62.60;;;;;;5114709;28;20031;-91
2022/05/13 07:42:53;;;;;;;18.15;5.45;;;23.80;64.10;;;;;;5147668;27;20026;-92
2022/05/13 07:45:19;;;;;;;7.22;1.85;;;23.60;64.20;;;;;;5138149;27;20034;-92
2022/05/13 07:47:44;;;;;;;1.88;0.98;;;23.50;63.60;;;;;;5140332;28;20034;-93
2022/05/13 07:50:12;;;;;;;2.80;1.42;;;23.30;66.80;;;;;;5138213;28;20007;-92
2022/05/13 07:52:40;;;;;;;3.08;1.30;;;23.00;71.80;;;;;;5121114;28;20055;-93
2022/05/13 07:55:11;;;;;;;25.08;4.63;;;22.80;72.80;;;;;;5114536;28;20023;-92
2022/05/13 07:57:38;;;;;;;10.70;2.08;;;22.60;80.40;;;;;;5114280;28;20027;-92
2022/05/13 08:02:48;;;;;;;6.53;1.83;;;22.80;87.80;;;;;;5133108;28;20031;-93
2022/05/13 08:05:15;;;;;;;4.57;1.42;;;23.90;88.20;;;;;;5114490;28;20039;-93
2022/05/13 08:07:41;;;;;;;6.03;1.08;;;24.90;73.10;;;;;;5114544;28;20041;-94
2022/05/13 08:10:07;;;;;;;14.57;3.63;;;25.60;65.30;;;;;;5114079;28;20023;-91
2022/05/13 08:12:34;;;;;;;24.00;6.07;;;26.30;60.90;;;;;;5114189;28;20034;-92
2022/05/13 08:14:59;;;;;;;9.88;1.73;;;27.00;60.30;;;;;;5113618;28;20038;-94
2022/05/13 08:17:26;;;;;;;2.95;1.40;;;28.10;56.20;;;;;;5117529;28;20024;-93
2022/05/13 08:19:52;;;;;;;2.97;0.95;;;29.20;49.30;;;;;;5116772;27;20390;-92
2022/05/13 08:22:17;;;;;;;1.90;0.75;;;30.00;45.70;;;;;;5118020;27;20106;-92
2022/05/13 08:24:43;;;;;;;2.28;1.20;;;30.40;42.30;;;;;;5118880;27;20590;-93
2022/05/13 08:27:09;;;;;;;2.15;0.98;;;30.70;43.30;;;;;;5118093;27;20042;-94
2022/05/13 08:29:34;;;;;;;5.53;1.50;;;30.30;42.70;;;;;;5118393;27;20091;-95
2022/05/13 08:32:00;;;;;;;3.17;0.85;;;29.90;44.60;;;;;;5120637;27;20023;-95
2022/05/13 08:34:26;;;;;;;1.95;0.88;;;29.70;42.90;;;;;;5118516;27;20437;-93
2022/05/13 08:36:51;;;;;;;2.40;0.75;;;30.10;43.00;;;;;;5121801;27;20029;-94
2022/05/13 08:39:17;;;;;;;2.45;1.17;;;30.40;40.50;;;;;;5117779;27;20027;-94
2022/05/13 08:42:08;;;;;;;4.60;0.95;;;30.40;39.50;;;;;;5117002;27;20760;-93
2022/05/13 08:44:34;;;;;;;1.77;0.80;;;30.60;37.50;;;;;;5117566;27;20035;-94
2022/05/13 08:47:21;;;;;;;14.45;1.33;;;30.60;38.40;;;;;;5119702;27;20019;-94
2022/05/13 08:50:12;;;;;;;1.88;0.75;;;30.60;40.00;;;;;;5113174;28;20052;-93
2022/05/13 08:55:42;;;;;;;1.88;0.50;;;31.30;37.70;;;;;;5148341;27;20042;-94
2022/05/13 08:58:15;;;;;;;0.75;0.50;;;31.90;36.00;;;;;;5137467;27;20023;-94
2022/05/13 09:00:53;;;;;;;2.75;0.73;;;32.20;35.60;;;;;;5149972;27;20038;-95
2022/05/13 09:03:46;;;;;;;2.20;0.75;;;32.30;35.90;;;;;;5106277;28;20034;-96
2022/05/13 09:06:30;;;;;;;4.25;1.08;;;32.60;35.50;;;;;;5104972;27;20031;-93
2022/05/13 09:09:00;;;;;;;2.05;0.82;;;33.10;34.30;;;;;;5119355;27;20031;-92
2022/05/13 09:11:41;;;;;;;1.15;0.60;;;33.60;34.60;;;;;;5098248;28;20519;-91
2022/05/13 09:14:09;;;;;;;0.88;0.60;;;33.40;33.20;;;;;;5100122;28;20028;-90
2022/05/13 09:16:41;;;;;;;1.52;0.57;;;32.80;33.00;;;;;;5096398;28;20030;-92
2022/05/13 09:19:19;;;;;;;4.05;0.65;;;31.80;33.10;;;;;;5099406;28;20242;-92
2022/05/13 09:21:45;;;;;;;3.15;0.70;;;30.70;33.60;;;;;;5117984;28;20081;-92
2022/05/13 09:24:12;;;;;;;2.60;0.75;;;29.60;37.70;;;;;;5102506;28;20027;-95
2022/05/13 09:26:41;;;;;;;6.70;0.70;;;28.80;41.00;;;;;;5097866;28;20069;-95
2022/05/13 09:29:17;;;;;;;1.92;0.57;;;27.90;42.90;;;;;;5098073;28;20507;-89
2022/05/13 09:31:43;;;;;;;;;;;27.50;46.00;;;;;;5099100;28;20023;-91
2022/05/13 09:34:36;;;;;;;2.77;0.83;;;27.10;45.60;;;;;;5104318;28;19922;-94
2022/05/13 09:37:24;;;;;;;1.90;0.60;;;27.00;45.40;;;;;;5122656;28;20037;-94
2022/05/13 09:40:10;;;;;;;2.03;0.82;;;26.90;46.90;;;;;;5102596;28;20036;-94
2022/05/13 09:42:42;;;;;;;1.13;0.68;;;26.90;48.30;;;;;;5125065;28;20096;-93
2022/05/13 09:45:28;;;;;;;1.17;0.65;;;27.10;48.20;;;;;;5106443;28;20677;-94
2022/05/13 09:48:20;;;;;;;3.70;1.25;;;27.50;48.50;;;;;;5119457;27;20019;-94
2022/05/13 09:50:53;;;;;;;2.35;1.25;;;27.90;48.00;;;;;;5121192;27;20046;-95
2022/05/13 09:53:21;;;;;;;2.25;0.85;;;27.90;47.20;;;;;;5124918;27;20521;-95
2022/05/13 09:55:59;;;;;;;8.65;1.10;;;28.00;48.20;;;;;;5125279;27;20055;-96
2022/05/13 09:58:29;;;;;;;2.55;1.10;;;27.90;47.30;;;;;;5147681;27;20027;-95
2022/05/13 10:01:13;;;;;;;1.92;0.80;;;27.80;47.90;;;;;;5128638;27;20087;-95
2022/05/13 10:03:40;;;;;;;1.58;1.02;;;27.60;48.30;;;;;;5117050;27;20256;-91
2022/05/13 10:06:09;;;;;;;1.30;0.80;;;27.40;49.10;;;;;;5121136;27;20066;-93
2022/05/13 10:08:37;;;;;;;1.95;0.70;;;27.20;50.40;;;;;;5118915;27;20050;-88
2022/05/13 10:13:59;;;;;;;1.90;1.00;;;26.90;51.70;;;;;;5127120;27;20583;-92
2022/05/13 10:16:45;;;;;;;1.10;0.70;;;26.60;52.60;;;;;;5102342;28;20020;-94
2022/05/13 10:19:24;;;;;;;3.30;1.02;;;26.20;53.50;;;;;;5110331;28;20518;-92
2022/05/13 10:21:58;;;;;;;2.58;0.93;;;25.90;55.10;;;;;;5101305;28;20401;-92
2022/05/13 10:24:31;;;;;;;2.63;1.10;;;25.60;56.40;;;;;;5100388;28;20028;-93
2022/05/13 10:27:00;;;;;;;1.63;0.80;;;25.40;57.50;;;;;;5099771;28;20023;-93
2022/05/13 10:29:41;;;;;;;2.60;0.90;;;25.20;57.90;;;;;;5102954;27;20031;-92
2022/05/13 10:32:22;;;;;;;6.03;1.25;;;25.20;58.60;;;;;;5103685;27;20029;-91
2022/05/13 10:34:53;;;;;;;1.75;1.00;;;25.10;59.10;;;;;;5111120;27;20032;-93
2022/05/13 10:37:37;;;;;;;5.35;1.00;;;25.10;59.60;;;;;;5100750;27;20032;-92
2022/05/13 10:40:13;;;;;;;2.25;1.10;;;25.10;59.30;;;;;;5094655;27;20122;-92
2022/05/13 10:42:44;;;;;;;2.88;1.13;;;24.90;59.70;;;;;;5114266;27;20085;-92
2022/05/13 10:45:25;;;;;;;5.32;0.98;;;24.90;60.00;;;;;;5107885;27;20061;-93
2022/05/13 10:48:03;;;;;;;3.10;1.10;;;24.90;60.00;;;;;;5110971;27;20062;-91
2022/05/13 10:50:50;;;;;;;3.80;1.15;;;24.70;61.30;;;;;;5117020;27;20039;-93
2022/05/13 10:53:28;;;;;;;4.85;1.52;;;24.60;63.60;;;;;;5103707;27;20088;-94
2022/05/13 10:56:16;;;;;;;2.55;1.00;;;24.50;65.70;;;;;;5130899;27;20171;-92
2022/05/13 10:58:51;;;;;;;2.90;0.88;;;24.30;66.80;;;;;;5120870;28;20119;-92
2022/05/13 11:01:39;;;;;;;3.50;1.17;;;24.40;65.40;;;;;;5128115;27;20032;-93
2022/05/13 11:04:15;;;;;;;3.38;1.20;;;24.40;64.20;;;;;;5100946;27;20082;-91
2022/05/13 11:07:03;;;;;;;;;;;24.30;62.90;;;;;;5109570;27;20471;-96
2022/05/13 11:09:50;;;;;;;5.43;0.90;;;24.10;61.20;;;;;;5089724;27;20383;-91
2022/05/13 11:12:37;;;;;;;2.55;0.82;;;23.90;60.60;;;;;;5104502;27;20039;-91
2022/05/13 11:15:06;;;;;;;3.35;0.95;;;23.70;60.70;;;;;;5114134;27;20119;-90
2022/05/13 11:17:53;;;;;;;2.33;0.90;;;23.50;61.70;;;;;;5106717;27;20033;-88
2022/05/13 11:20:39;;;;;;;5.47;1.00;;;23.40;62.40;;;;;;5119396;27;20015;-90
2022/05/13 11:23:43;;;;;;;2.00;1.10;;;23.40;63.30;;;;;;5120038;27;20044;-94
2022/05/13 11:26:32;;;;;;;2.63;1.08;;;23.50;64.00;;;;;;5126139;28;20046;-92
2022/05/13 11:29:12;;;;;;;2.40;1.00;;;23.70;63.80;;;;;;5128545;27;20027;-91
2022/05/13 11:32:03;;;;;;;2.40;0.88;;;24.00;63.30;;;;;;5125524;28;20567;-93
2022/05/13 11:34:54;;;;;;;3.35;1.15;;;24.20;62.80;;;;;;5115713;28;20567;-92
2022/05/13 11:37:21;;;;;;;3.58;0.80;;;24.40;61.10;;;;;;5136289;28;20034;-92
2022/05/13 11:40:01;;;;;;;2.33;1.00;;;24.50;60.50;;;;;;5115220;28;20027;-94
2022/05/13 11:42:33;;;;;;;5.75;1.00;;;24.70;59.90;;;;;;5115790;28;20027;-90
2022/05/13 11:45:13;;;;;;;6.18;1.27;;;24.90;59.30;;;;;;5114293;28;20051;-85
2022/05/13 11:47:56;;;;;;;2.05;0.98;;;25.00;59.20;;;;;;5111515;28;20031;-86
2022/05/13 11:50:23;;;;;;;1.83;1.00;;;25.20;59.50;;;;;;5113517;28;20019;-89
2022/05/13 11:52:50;;;;;;;6.22;1.00;;;25.50;58.80;;;;;;5112409;28;20106;-83
2022/05/13 11:55:35;;;;;;;2.22;1.10;;;25.60;58.10;;;;;;5130174;27;20554;-83
2022/05/13 11:58:01;;;;;;;3.00;0.98;;;25.70;58.10;;;;;;5118213;27;20051;-88
2022/05/13 12:00:38;;;;;;;4.75;0.90;;;25.60;57.50;;;;;;5117963;27;20066;-88
2022/05/13 12:03:12;;;;;;;6.38;1.10;;;25.70;57.40;;;;;;5120455;27;20026;-90
2022/05/13 12:05:48;;;;;;;6.93;1.20;;;25.80;55.40;;;;;;5107731;27;20237;-90
2022/05/13 12:08:37;;;;;;;2.20;0.93;;;25.70;55.80;;;;;;5103237;28;20047;-92
2022/05/13 12:11:02;;;;;;;3.85;0.90;;;25.70;56.20;;;;;;5086585;28;20484;-92
2022/05/13 12:13:47;;;;;;;2.40;1.00;;;25.80;56.00;;;;;;5099849;28;20039;-92
2022/05/13 12:17:06;;;;;;;1.70;0.90;;;26.00;56.90;;;;;;5117828;28;20092;-91
2022/05/13 12:19:50;;;;;;;3.08;0.98;;;26.10;55.90;;;;;;4999852;28;20076;-90
2022/05/13 12:22:30;;;;;;;2.25;1.13;;;26.10;56.00;;;;;;5111295;27;20076;-90
2022/05/13 12:25:04;;;;;;;3.92;1.13;;;26.00;56.50;;;;;;5136968;27;20033;-91
2022/05/13 12:28:01;;;;;;;6.10;1.10;;;26.00;57.00;;;;;;5136114;27;20117;-92
2022/05/13 12:30:34;;;;;;;6.40;1.02;;;25.90;57.30;;;;;;5136420;27;20402;-89
2022/05/13 12:33:25;;;;;;;5.72;1.42;;;25.90;56.30;;;;;;5121569;27;20399;-90
2022/05/13 12:39:05;;;;;;;5.07;1.10;;;25.50;53.40;;;;;;5136604;27;20042;-92
2022/05/13 12:41:45;;;;;;;2.05;0.80;;;25.10;51.60;;;;;;5141485;27;20031;-91
2022/05/13 12:44:13;;;;;;;2.22;1.05;;;24.80;52.40;;;;;;5128737;27;20030;-89
2022/05/13 12:46:49;;;;;;;2.58;1.02;;;24.40;53.00;;;;;;5123066;27;20030;-91
2022/05/13 12:49:25;;;;;;;;;;;24.30;54.10;;;;;;5141319;27;20031;-91
2022/05/13 12:52:17;;;;;;;3.38;0.98;;;24.20;55.40;;;;;;5128766;27;19946;-91
2022/05/13 12:55:05;;;;;;;4.35;1.05;;;24.00;54.90;;;;;;5125618;27;20056;-92
2022/05/13 12:57:39;;;;;;;3.33;1.15;;;23.90;54.80;;;;;;5124211;27;20027;-94
2022/05/13 13:00:22;;;;;;;2.42;1.20;;;23.80;54.30;;;;;;5126410;27;20023;-93
2022/05/13 13:02:54;;;;;;;2.67;1.30;;;23.60;54.10;;;;;;5125375;27;20049;-92
2022/05/13 13:05:29;;;;;;;3.97;1.20;;;23.40;54.60;;;;;;5124625;27;20138;-90
2022/05/13 13:08:10;;;;;;;1.73;1.02;;;23.40;54.20;;;;;;5146476;27;20142;-91
2022/05/13 13:10:36;;;;;;;3.10;1.30;;;23.40;53.90;;;;;;5127095;27;20085;-89
2022/05/13 13:13:17;;;;;;;4.18;0.80;;;23.30;54.80;;;;;;5121384;27;20039;-94
2022/05/13 13:15:54;;;;;;;3.72;1.10;;;23.40;55.50;;;;;;5125598;27;20077;-91
2022/05/13 13:18:30;;;;;;;4.15;1.10;;;23.50;56.00;;;;;;5125130;27;20026;-95
2022/05/13 13:20:59;;;;;;;3.15;1.00;;;23.50;56.00;;;;;;5124810;27;20462;-94
2022/05/13 13:23:32;;;;;;;1.58;0.90;;;23.40;56.30;;;;;;5123375;27;20555;-94
2022/05/13 13:25:59;;;;;;;3.22;1.65;;;23.30;57.10;;;;;;5126263;27;20031;-90
2022/05/13 13:28:32;;;;;;;3.33;1.15;;;23.20;57.60;;;;;;5122500;27;20027;-92
2022/05/13 13:31:01;;;;;;;4.93;1.00;;;23.10;59.00;;;;;;5124443;27;20212;-92
2022/05/13 13:33:35;;;;;;;7.10;1.52;;;22.90;59.30;;;;;;5122567;27;20110;-93
2022/05/13 13:36:07;;;;;;;2.38;0.73;;;22.90;59.90;;;;;;5122162;27;20031;-95
2022/05/13 13:38:33;;;;;;;2.67;0.98;;;22.90;60.50;;;;;;5122229;27;20024;-92